createdAt,value
2023-05-10T00:00:47.666Z,98977.89
2023-05-10T00:02:09.230Z,98974.80
2023-05-10T00:03:31.283Z,98976.45
2023-05-10T00:04:53.283Z,98973.65
2023-05-10T00:06:14.980Z,98975.29
2023-05-10T00:07:45.925Z,98975.45
2023-05-10T00:09:13.160Z,98975.35
2023-05-10T00:10:37.080Z,98973.25
2023-05-10T00:12:01.219Z,98974.06
2023-05-10T00:13:25.345Z,98960.22
2023-05-10T00:14:54.856Z,98972.39
2023-05-10T00:16:16.551Z,98973.30
2023-05-10T00:17:38.758Z,98967.00
2023-05-10T00:19:11.915Z,98971.60
2023-05-10T00:20:33.761Z,98969.98
2023-05-10T00:21:58.191Z,98970.35
2023-05-10T00:23:32.111Z,98961.36
2023-05-10T00:24:53.667Z,98968.24
2023-05-10T00:26:17.541Z,98964.80
2023-05-10T00:27:40.704Z,98963.42
2023-05-10T00:29:02.420Z,98965.77
2023-05-10T00:30:26.745Z,98962.48
2023-05-10T00:31:53.638Z,98959.64
2023-05-10T00:33:19.242Z,98959.48
2023-05-10T00:34:41.032Z,98957.91
2023-05-10T00:36:02.696Z,98961.41
2023-05-10T00:37:24.436Z,98960.63
2023-05-10T00:38:46.740Z,98953.65
2023-05-10T00:40:20.257Z,98953.33
2023-05-10T00:41:44.042Z,98950.90
2023-05-10T00:43:05.887Z,98953.26
2023-05-10T00:44:27.626Z,98952.28
2023-05-10T00:45:51.887Z,98951.08
2023-05-10T00:47:13.412Z,98931.23
2023-05-10T00:48:37.333Z,98947.16
2023-05-10T00:50:11.028Z,98945.63
2023-05-10T00:51:40.136Z,98946.05
2023-05-10T00:53:01.781Z,98949.83
2023-05-10T00:54:23.437Z,98947.11
2023-05-10T00:55:46.372Z,98948.17
2023-05-10T00:57:11.592Z,98946.73
2023-05-10T00:58:33.552Z,98944.13
2023-05-10T00:59:57.384Z,98944.48
2023-05-10T01:01:26.591Z,98945.67
2023-05-10T01:02:48.550Z,98944.99
2023-05-10T01:04:13.174Z,98942.21
2023-05-10T01:05:35.219Z,98945.91
2023-05-10T01:06:57.419Z,98944.16
2023-05-10T01:08:18.897Z,98942.41
2023-05-10T01:09:40.690Z,98945.30
2023-05-10T01:11:03.364Z,98941.02
2023-05-10T01:12:25.469Z,98940.19
2023-05-10T01:13:57.145Z,98942.30
2023-05-10T01:15:19.007Z,98942.39
2023-05-10T01:16:40.550Z,98938.75
2023-05-10T01:18:02.031Z,98934.86
2023-05-10T01:19:25.941Z,98938.48
2023-05-10T01:20:47.982Z,98937.11
2023-05-10T01:22:12.705Z,98933.35
2023-05-10T01:23:34.380Z,98934.10
2023-05-10T01:24:58.520Z,98930.34
2023-05-10T01:26:22.483Z,98933.27
2023-05-10T01:27:44.360Z,98931.88
2023-05-10T01:29:06.985Z,98931.83
2023-05-10T01:30:29.070Z,98932.67
2023-05-10T01:31:50.858Z,98930.59
2023-05-10T01:33:12.739Z,98932.70
2023-05-10T01:34:34.544Z,98931.66
2023-05-10T01:36:07.956Z,98932.13
2023-05-10T01:37:30.229Z,98934.73
2023-05-10T01:38:59.399Z,98931.05
2023-05-10T01:40:21.164Z,98932.17
2023-05-10T01:41:42.894Z,98933.23
2023-05-10T01:43:04.463Z,98930.59
2023-05-10T01:44:26.726Z,98933.36
2023-05-10T01:45:48.841Z,98930.55
2023-05-10T01:47:12.580Z,98927.91
2023-05-10T01:48:44.535Z,98922.59
2023-05-10T01:50:05.863Z,98927.80
2023-05-10T01:51:30.180Z,98925.30
2023-05-10T01:52:51.993Z,98925.36
2023-05-10T01:54:21.618Z,98926.77
2023-05-10T01:55:47.174Z,98928.11
2023-05-10T01:57:10.962Z,98930.32
2023-05-10T01:58:35.247Z,98926.80
2023-05-10T01:59:57.221Z,98928.49
2023-05-10T02:01:19.288Z,98929.98
2023-05-10T02:02:41.331Z,98927.80
2023-05-10T02:04:02.747Z,98927.70
2023-05-10T02:05:24.804Z,98928.60
2023-05-10T02:06:49.355Z,98931.45
2023-05-10T02:08:11.281Z,98926.89
2023-05-10T02:09:33.167Z,98928.86
2023-05-10T02:10:54.324Z,98929.83
2023-05-10T02:12:18.460Z,98925.59
2023-05-10T02:13:40.526Z,98926.66
2023-05-10T02:15:02.142Z,98914.87
2023-05-10T02:16:24.090Z,98922.08
2023-05-10T02:17:45.929Z,98920.77
2023-05-10T02:19:09.791Z,98918.78
2023-05-10T02:20:39.282Z,98917.98
2023-05-10T02:22:01.118Z,98922.95
2023-05-10T02:23:24.715Z,98925.04
2023-05-10T02:24:46.776Z,98924.63
2023-05-10T02:26:16.140Z,98922.09
2023-05-10T02:27:37.957Z,98919.61
2023-05-10T02:29:01.707Z,98918.75
2023-05-10T02:30:23.425Z,98915.39
2023-05-10T02:31:45.586Z,98911.81
2023-05-10T02:33:07.422Z,98911.64
2023-05-10T02:34:31.699Z,98913.11
2023-05-10T02:35:53.818Z,98911.50
2023-05-10T02:37:26.918Z,98909.10
2023-05-10T02:38:49.127Z,98909.96
2023-05-10T02:40:11.962Z,98908.86
2023-05-10T02:41:36.102Z,98909.38
2023-05-10T02:43:00.394Z,98913.06
2023-05-10T02:44:22.267Z,98913.70
2023-05-10T02:45:44.080Z,98912.20
2023-05-10T02:47:13.563Z,98911.27
2023-05-10T02:48:42.388Z,98913.48
2023-05-10T02:50:06.452Z,98912.46
2023-05-10T02:51:27.959Z,98909.64
2023-05-10T02:52:49.606Z,98910.88
2023-05-10T02:54:11.131Z,98910.84
2023-05-10T02:55:33.369Z,98909.43
2023-05-10T02:56:55.254Z,98909.92
2023-05-10T02:58:19.342Z,98911.23
2023-05-10T02:59:43.666Z,98883.14
2023-05-10T03:01:08.546Z,98906.71
2023-05-10T03:02:33.048Z,98907.20
2023-05-10T03:04:04.098Z,98912.03
2023-05-10T03:05:26.132Z,98903.57
2023-05-10T03:06:55.493Z,98905.74
2023-05-10T03:08:16.978Z,98906.01
2023-05-10T03:09:43.266Z,98907.16
2023-05-10T03:11:05.052Z,98907.20
2023-05-10T03:12:29.422Z,98905.95
2023-05-10T03:13:51.289Z,98909.91
2023-05-10T03:15:13.112Z,98909.98
2023-05-10T03:16:35.038Z,98908.05
2023-05-10T03:17:56.787Z,98909.28
2023-05-10T03:19:23.796Z,98905.14
2023-05-10T03:20:45.732Z,98907.20
2023-05-10T03:22:09.629Z,98905.77
2023-05-10T03:23:31.937Z,98906.67
2023-05-10T03:24:56.382Z,98904.59
2023-05-10T03:26:26.377Z,98904.11
2023-05-10T03:27:54.166Z,98902.32
2023-05-10T03:29:18.259Z,98901.70
2023-05-10T03:30:42.117Z,98899.56
2023-05-10T03:32:05.560Z,98897.19
2023-05-10T03:33:27.964Z,98896.19
2023-05-10T03:34:52.075Z,98895.51
2023-05-10T03:36:16.107Z,98897.25
2023-05-10T03:37:38.116Z,98896.21
2023-05-10T03:39:00.348Z,98896.48
2023-05-10T03:40:26.770Z,98897.24
2023-05-10T03:41:48.307Z,98897.92
2023-05-10T03:43:09.976Z,98898.46
2023-05-10T03:44:34.090Z,98894.14
2023-05-10T03:45:55.700Z,98898.30
2023-05-10T03:47:17.265Z,98896.62
2023-05-10T03:48:38.708Z,98896.77
2023-05-10T03:50:07.993Z,98895.06
2023-05-10T03:51:32.316Z,98894.96
2023-05-10T03:52:56.127Z,98895.23
2023-05-10T03:54:20.011Z,98899.20
2023-05-10T03:55:41.968Z,98895.21
2023-05-10T03:57:11.441Z,98896.52
2023-05-10T03:58:33.631Z,98894.22
2023-05-10T04:00:04.091Z,98892.30
2023-05-10T04:01:36.128Z,98895.27
2023-05-10T04:03:05.250Z,98892.16
2023-05-10T04:04:29.244Z,98888.99
2023-05-10T04:05:53.287Z,98890.43
2023-05-10T04:07:25.465Z,98894.21
2023-05-10T04:08:54.857Z,98893.98
2023-05-10T04:10:17.526Z,98897.09
2023-05-10T04:11:39.523Z,98896.05
2023-05-10T04:13:01.240Z,98898.92
2023-05-10T04:14:25.060Z,98901.31
2023-05-10T04:15:46.703Z,98903.64
2023-05-10T04:17:15.976Z,98905.86
2023-05-10T04:18:37.914Z,98905.71
2023-05-10T04:19:59.716Z,98907.90
2023-05-10T04:21:21.125Z,98906.10
2023-05-10T04:22:42.985Z,98909.10
2023-05-10T04:24:05.156Z,98907.02
2023-05-10T04:25:26.795Z,98904.36
2023-05-10T04:26:47.955Z,98901.13
2023-05-10T04:28:11.857Z,98903.64
2023-05-10T04:29:36.193Z,98904.01
2023-05-10T04:30:57.921Z,98906.83
2023-05-10T04:32:21.287Z,98893.30
2023-05-10T04:33:43.425Z,98906.02
2023-05-10T04:35:05.713Z,98906.92
2023-05-10T04:36:27.603Z,98907.54
2023-05-10T04:37:49.751Z,98907.13
2023-05-10T04:39:11.013Z,98907.72
2023-05-10T04:40:33.038Z,98906.40
2023-05-10T04:41:54.625Z,98908.90
2023-05-10T04:43:16.471Z,98907.31
2023-05-10T04:44:38.040Z,98908.23
2023-05-10T04:46:09.614Z,98910.88
2023-05-10T04:47:31.791Z,98907.23
2023-05-10T04:48:55.873Z,98909.52
2023-05-10T04:50:19.984Z,98910.48
2023-05-10T04:51:42.069Z,98908.29
2023-05-10T04:53:06.190Z,98903.85
2023-05-10T04:54:27.756Z,98903.08
2023-05-10T04:55:56.843Z,98900.98
2023-05-10T04:57:18.649Z,98901.05
2023-05-10T04:58:40.604Z,98900.32
2023-05-10T05:00:04.835Z,98898.05
2023-05-10T05:01:28.795Z,98895.77
2023-05-10T05:02:51.292Z,98893.29
2023-05-10T05:04:13.063Z,98895.69
2023-05-10T05:05:35.020Z,98892.08
2023-05-10T05:06:56.988Z,98890.30
2023-05-10T05:08:26.205Z,98877.39
2023-05-10T05:09:47.885Z,98889.39
2023-05-10T05:11:19.700Z,98885.27
2023-05-10T05:12:41.424Z,98886.73
2023-05-10T05:14:17.334Z,98887.45
2023-05-10T05:15:39.307Z,98866.44
2023-05-10T05:17:10.954Z,98889.77
2023-05-10T05:18:35.275Z,98892.22
2023-05-10T05:19:59.313Z,98892.41
2023-05-10T05:21:21.229Z,98890.73
2023-05-10T05:22:45.408Z,98890.77
2023-05-10T05:24:18.986Z,98881.59
2023-05-10T05:25:40.687Z,98891.53
2023-05-10T05:27:04.866Z,98894.07
2023-05-10T05:28:38.345Z,98895.39
2023-05-10T05:30:07.436Z,98898.86
2023-05-10T05:31:31.941Z,98894.43
2023-05-10T05:32:53.803Z,98894.65
2023-05-10T05:34:17.881Z,98892.91
2023-05-10T05:35:51.837Z,98891.93
2023-05-10T05:37:21.676Z,98888.04
2023-05-10T05:38:46.113Z,98888.52
2023-05-10T05:40:12.156Z,98894.53
2023-05-10T05:41:36.565Z,98891.84
2023-05-10T05:43:05.486Z,98893.61
2023-05-10T05:44:34.457Z,98892.27
2023-05-10T05:46:07.990Z,98891.84
2023-05-10T05:47:31.980Z,98890.33
2023-05-10T05:48:53.891Z,98888.19
2023-05-10T05:50:17.707Z,98885.92
2023-05-10T05:51:50.149Z,98886.76
2023-05-10T05:53:19.304Z,98891.23
2023-05-10T05:54:45.727Z,98888.79
2023-05-10T05:56:07.244Z,98889.95
2023-05-10T05:57:28.987Z,98890.63
2023-05-10T05:59:02.558Z,98888.05
2023-05-10T06:00:24.064Z,98885.55
2023-05-10T06:01:48.056Z,98887.38
2023-05-10T06:03:12.177Z,98886.06
2023-05-10T06:04:34.324Z,98887.77
2023-05-10T06:05:58.054Z,98887.09
2023-05-10T06:07:26.978Z,98886.61
2023-05-10T06:08:48.483Z,98888.81
2023-05-10T06:10:12.799Z,98887.43
2023-05-10T06:11:36.755Z,98885.21
2023-05-10T06:13:12.662Z,98886.95
2023-05-10T06:14:44.064Z,98883.79
2023-05-10T06:16:18.705Z,98884.73
2023-05-10T06:17:43.736Z,98883.77
2023-05-10T06:19:05.560Z,98885.20
2023-05-10T06:20:39.170Z,98883.42
2023-05-10T06:22:03.266Z,98879.91
2023-05-10T06:23:26.496Z,98884.55
2023-05-10T06:24:50.446Z,98885.11
2023-05-10T06:26:23.490Z,98883.59
2023-05-10T06:27:49.082Z,98882.65
2023-05-10T06:29:12.922Z,98881.76
2023-05-10T06:30:37.102Z,98881.50
2023-05-10T06:32:12.745Z,98881.00
2023-05-10T06:33:37.020Z,98879.02
2023-05-10T06:34:58.955Z,98883.58
2023-05-10T06:36:25.560Z,98878.48
2023-05-10T06:37:49.283Z,98882.67
2023-05-10T06:39:12.608Z,98878.35
2023-05-10T06:40:36.883Z,98881.59
2023-05-10T06:42:00.739Z,98880.17
2023-05-10T06:43:31.385Z,98881.85
2023-05-10T06:45:12.058Z,98884.77
2023-05-10T06:46:34.477Z,98881.17
2023-05-10T06:48:03.840Z,98877.64
2023-05-10T06:49:25.596Z,98877.61
2023-05-10T06:50:54.730Z,98872.81
2023-05-10T06:52:21.037Z,98880.84
2023-05-10T06:53:42.848Z,98884.91
2023-05-10T06:55:04.860Z,98883.67
2023-05-10T06:56:29.358Z,98882.38
2023-05-10T06:57:53.323Z,98882.25
2023-05-10T06:59:22.668Z,98871.88
2023-05-10T07:00:44.846Z,98881.30
2023-05-10T07:02:07.058Z,98881.30
2023-05-10T07:03:29.058Z,98881.78
2023-05-10T07:05:03.562Z,98885.21
2023-05-10T07:06:33.258Z,98878.98
2023-05-10T07:07:57.803Z,98885.15
2023-05-10T07:09:23.804Z,98878.34
2023-05-10T07:10:45.550Z,98880.38
2023-05-10T07:12:09.575Z,98877.15
2023-05-10T07:13:35.607Z,98882.13
2023-05-10T07:14:57.508Z,98887.46
2023-05-10T07:16:21.441Z,98884.19
2023-05-10T07:17:50.322Z,98885.10
2023-05-10T07:19:14.256Z,98891.57
2023-05-10T07:20:36.476Z,98889.42
2023-05-10T07:22:00.232Z,98889.38
2023-05-10T07:23:26.989Z,98889.58
2023-05-10T07:25:03.061Z,98888.98
2023-05-10T07:26:36.696Z,98889.35
2023-05-10T07:28:01.397Z,98889.87
2023-05-10T07:29:34.881Z,98890.23
2023-05-10T07:30:56.931Z,98892.03
2023-05-10T07:32:30.855Z,98891.28
2023-05-10T07:34:04.213Z,98892.72
2023-05-10T07:35:33.570Z,98891.30
2023-05-10T07:36:55.338Z,98892.17
2023-05-10T07:38:18.664Z,98893.65
2023-05-10T07:39:52.756Z,98893.85
2023-05-10T07:41:14.256Z,98893.06
2023-05-10T07:42:36.380Z,98893.60
2023-05-10T07:43:58.048Z,98893.46
2023-05-10T07:45:19.654Z,98887.70
2023-05-10T07:46:41.447Z,98887.34
2023-05-10T07:48:03.239Z,98887.02
2023-05-10T07:49:25.318Z,98885.45
2023-05-10T07:50:49.474Z,98885.46
2023-05-10T07:52:11.163Z,98883.64
2023-05-10T07:53:33.375Z,98877.08
2023-05-10T07:54:55.386Z,98876.39
2023-05-10T07:56:19.529Z,98880.84
2023-05-10T07:57:41.318Z,98877.76
2023-05-10T07:59:23.807Z,98877.30
2023-05-10T08:00:50.672Z,98876.79
2023-05-10T08:02:12.126Z,98874.88
2023-05-10T08:03:39.246Z,98877.98
2023-05-10T08:05:03.285Z,98872.88
2023-05-10T08:06:27.424Z,98870.09
2023-05-10T08:07:49.173Z,98875.80
2023-05-10T08:09:11.811Z,98871.97
2023-05-10T08:10:33.771Z,98869.09
2023-05-10T08:11:57.772Z,98865.62
2023-05-10T08:13:19.639Z,98868.55
2023-05-10T08:14:41.670Z,98866.27
2023-05-10T08:16:03.470Z,98867.08
2023-05-10T08:17:25.384Z,98864.43
2023-05-10T08:18:50.779Z,98861.71
2023-05-10T08:20:13.849Z,98864.86
2023-05-10T08:21:36.949Z,98868.98
2023-05-10T08:23:00.850Z,98871.09
2023-05-10T08:24:23.538Z,98866.77
2023-05-10T08:25:47.802Z,98866.70
2023-05-10T08:27:09.184Z,98866.73
2023-05-10T08:28:33.150Z,98867.77
2023-05-10T08:29:55.249Z,98866.44
2023-05-10T08:31:19.191Z,98855.47
2023-05-10T08:32:41.255Z,98862.03
2023-05-10T08:34:02.798Z,98869.16
2023-05-10T08:35:36.158Z,98866.88
2023-05-10T08:37:01.012Z,98861.97
2023-05-10T08:40:22.625Z,98860.30
2023-05-10T08:41:46.876Z,98865.34
2023-05-10T08:43:09.585Z,98862.92
2023-05-10T08:44:31.630Z,98862.25
2023-05-10T08:45:53.882Z,98856.20
2023-05-10T08:47:15.613Z,98860.70
2023-05-10T08:48:37.547Z,98857.92
2023-05-10T08:50:01.862Z,98864.52
2023-05-10T08:51:26.303Z,98862.52
2023-05-10T08:52:49.132Z,98858.73
2023-05-10T08:54:15.063Z,98860.75
2023-05-10T08:55:44.464Z,98858.52
2023-05-10T08:57:08.532Z,98863.10
2023-05-10T08:58:38.417Z,98860.96
2023-05-10T09:00:02.467Z,98866.49
2023-05-10T09:01:32.045Z,98861.62
2023-05-10T09:02:53.913Z,98857.68
2023-05-10T09:04:15.734Z,98862.39
2023-05-10T09:05:49.799Z,98859.90
2023-05-10T09:07:11.666Z,98855.58
2023-05-10T09:08:35.923Z,98856.83
2023-05-10T09:09:57.772Z,98862.46
2023-05-10T09:11:19.107Z,98857.23
2023-05-10T09:12:40.805Z,98855.34
2023-05-10T09:14:12.134Z,98859.27
2023-05-10T09:15:36.460Z,98856.36
2023-05-10T09:16:58.469Z,98860.01
2023-05-10T09:18:22.363Z,98856.92
2023-05-10T09:19:43.766Z,98858.40
2023-05-10T09:21:05.417Z,98858.84
2023-05-10T09:22:39.781Z,98865.17
2023-05-10T09:24:01.691Z,98859.99
2023-05-10T09:25:25.711Z,98858.05
2023-05-10T09:26:48.605Z,98859.64
2023-05-10T09:28:17.421Z,98861.02
2023-05-10T09:29:41.544Z,98854.23
2023-05-10T09:31:03.562Z,98860.17
2023-05-10T09:32:25.116Z,98860.50
2023-05-10T09:33:52.248Z,98855.86
2023-05-10T09:35:13.646Z,98847.28
2023-05-10T09:36:40.344Z,98843.13
2023-05-10T09:38:02.279Z,98846.59
2023-05-10T09:39:26.597Z,98843.41
2023-05-10T09:40:55.211Z,98844.27
2023-05-10T09:42:16.646Z,98847.95
2023-05-10T09:43:45.611Z,98845.77
2023-05-10T09:45:07.313Z,98851.02
2023-05-10T09:46:28.988Z,98851.46
2023-05-10T09:47:50.956Z,98853.48
2023-05-10T09:49:12.514Z,98853.64
2023-05-10T09:50:37.148Z,98849.00
2023-05-10T09:51:58.856Z,98850.34
2023-05-10T09:53:20.635Z,98851.02
2023-05-10T09:54:44.676Z,98849.76
2023-05-10T09:56:08.822Z,98845.55
2023-05-10T09:57:31.886Z,98843.31
2023-05-10T09:58:54.371Z,98845.51
2023-05-10T10:00:16.022Z,98843.61
2023-05-10T10:01:37.504Z,98847.49
2023-05-10T10:02:59.454Z,98844.06
2023-05-10T10:04:21.859Z,98837.73
2023-05-10T10:05:44.209Z,98834.98
2023-05-10T10:07:05.600Z,98830.98
2023-05-10T10:08:27.453Z,98833.06
2023-05-10T10:09:51.728Z,98835.95
2023-05-10T10:11:13.011Z,98834.86
2023-05-10T10:12:35.224Z,98831.84
2023-05-10T10:14:04.076Z,98832.19
2023-05-10T10:15:26.075Z,98828.59
2023-05-10T10:16:59.913Z,98836.45
2023-05-10T10:18:30.378Z,98830.14
2023-05-10T10:19:52.188Z,98824.19
2023-05-10T10:21:13.719Z,98823.65
2023-05-10T10:22:37.588Z,98826.48
2023-05-10T10:23:59.359Z,98826.08
2023-05-10T10:25:21.109Z,98831.60
2023-05-10T10:26:45.167Z,98827.36
2023-05-10T10:28:07.771Z,98827.33
2023-05-10T10:29:41.404Z,98818.62
2023-05-10T10:31:03.359Z,98829.66
2023-05-10T10:32:25.221Z,98827.55
2023-05-10T10:33:48.292Z,98826.56
2023-05-10T10:35:12.931Z,98821.67
2023-05-10T10:36:46.606Z,98815.40
2023-05-10T10:38:08.519Z,98818.36
2023-05-10T10:39:37.832Z,98815.95
2023-05-10T10:41:02.312Z,98813.75
2023-05-10T10:42:26.180Z,98819.61
2023-05-10T10:43:50.160Z,98815.66
2023-05-10T10:45:22.296Z,98809.80
2023-05-10T10:46:44.575Z,98808.33
2023-05-10T10:48:08.745Z,98806.33
2023-05-10T10:49:49.236Z,98809.71
2023-05-10T10:51:13.317Z,98806.31
2023-05-10T10:52:35.724Z,98808.30
2023-05-10T10:53:57.510Z,98808.66
2023-05-10T10:55:25.929Z,98812.21
2023-05-10T10:56:59.131Z,98810.83
2023-05-10T10:58:27.991Z,98804.34
2023-05-10T10:59:52.013Z,98810.77
2023-05-10T11:01:16.058Z,98806.61
2023-05-10T11:02:53.349Z,98809.56
2023-05-10T11:04:17.212Z,98806.83
2023-05-10T11:05:46.468Z,98800.48
2023-05-10T11:07:10.585Z,98802.06
2023-05-10T11:08:36.452Z,98807.21
2023-05-10T11:09:59.836Z,98808.89
2023-05-10T11:11:36.272Z,98804.32
2023-05-10T11:13:09.581Z,98806.85
2023-05-10T11:14:38.983Z,98809.13
2023-05-10T11:16:12.820Z,98806.55
2023-05-10T11:17:35.206Z,98815.61
2023-05-10T11:18:58.861Z,98818.15
2023-05-10T11:20:35.751Z,98813.75
2023-05-10T11:21:59.876Z,98811.50
2023-05-10T11:23:22.452Z,98813.60
2023-05-10T11:24:58.624Z,98805.79
2023-05-10T11:26:27.493Z,98802.96
2023-05-10T11:27:49.173Z,98796.23
2023-05-10T11:29:11.194Z,98795.76
2023-05-10T11:30:40.644Z,98784.42
2023-05-10T11:32:22.888Z,98798.39
2023-05-10T11:33:44.868Z,98800.52
2023-05-10T11:35:08.730Z,98793.07
2023-05-10T11:36:32.016Z,98796.58
2023-05-10T11:38:00.974Z,98795.19
2023-05-10T11:39:27.663Z,98794.74
2023-05-10T11:40:56.648Z,98789.95
2023-05-10T11:42:37.481Z,98787.42
2023-05-10T11:43:58.935Z,98794.55
2023-05-10T11:45:32.636Z,98786.98
2023-05-10T11:46:54.420Z,98788.40
2023-05-10T11:48:17.693Z,98787.42
2023-05-10T11:49:40.060Z,98791.04
2023-05-10T11:51:02.880Z,98789.95
2023-05-10T11:52:32.382Z,98787.63
2023-05-10T11:54:05.493Z,98780.20
2023-05-10T11:55:27.284Z,98785.98
2023-05-10T11:56:48.933Z,98783.92
2023-05-10T11:58:10.966Z,98789.66
2023-05-10T11:59:35.220Z,98789.73
2023-05-10T12:01:07.203Z,98784.83
2023-05-10T12:02:31.375Z,98783.89
2023-05-10T12:04:05.282Z,98781.19
2023-05-10T12:05:50.213Z,98776.61
2023-05-10T12:07:14.384Z,98781.54
2023-05-10T12:08:39.011Z,98776.30
2023-05-10T12:10:01.113Z,98786.27
2023-05-10T12:11:25.270Z,98782.67
2023-05-10T12:12:48.321Z,98782.85
2023-05-10T12:14:12.222Z,98780.55
2023-05-10T12:15:34.530Z,98771.51
2023-05-10T12:16:59.284Z,98781.05
2023-05-10T12:18:20.611Z,98780.06
2023-05-10T12:19:45.164Z,98777.19
2023-05-10T12:21:06.993Z,98776.03
2023-05-10T12:22:31.152Z,98777.27
2023-05-10T12:23:58.091Z,98767.99
2023-05-10T12:25:19.582Z,98780.17
2023-05-10T12:26:43.961Z,98781.79
2023-05-10T12:28:05.652Z,98780.01
2023-05-10T12:29:27.267Z,98787.02
2023-05-10T12:30:56.724Z,98779.26
2023-05-10T12:32:20.827Z,98779.68
2023-05-10T12:33:51.122Z,98778.58
2023-05-10T12:35:15.710Z,98783.83
2023-05-10T12:36:37.629Z,98785.46
2023-05-10T12:38:01.671Z,98782.49
2023-05-10T12:39:33.221Z,98780.39
2023-05-10T12:40:55.027Z,98780.39
2023-05-10T12:42:24.393Z,98780.30
2023-05-10T12:43:49.239Z,98772.06
2023-05-10T12:45:10.984Z,98763.95
2023-05-10T12:46:33.401Z,98776.67
2023-05-10T12:47:59.437Z,98776.45
2023-05-10T12:49:21.637Z,98778.32
2023-05-10T12:50:45.641Z,98772.19
2023-05-10T12:52:09.684Z,98775.06
2023-05-10T12:53:33.951Z,98773.50
2023-05-10T12:54:57.573Z,98772.15
2023-05-10T12:56:19.271Z,98775.11
2023-05-10T12:57:43.414Z,98769.36
2023-05-10T12:59:14.628Z,98765.62
2023-05-10T13:00:38.969Z,98769.90
2023-05-10T13:02:03.171Z,98770.45
2023-05-10T13:03:25.405Z,98762.24
2023-05-10T13:04:51.033Z,98760.86
2023-05-10T13:06:14.360Z,98762.36
2023-05-10T13:07:36.186Z,98765.38
2023-05-10T13:09:00.505Z,98766.33
2023-05-10T13:10:24.844Z,98772.33
2023-05-10T13:11:48.974Z,98766.29
2023-05-10T13:13:11.109Z,98768.00
2023-05-10T13:14:44.757Z,98763.48
2023-05-10T13:16:08.823Z,98761.56
2023-05-10T13:17:34.224Z,98763.25
2023-05-10T13:18:56.374Z,98760.79
2023-05-10T13:20:25.700Z,98762.09
2023-05-10T13:22:01.692Z,98757.04
2023-05-10T13:23:23.454Z,98755.19
2023-05-10T13:24:50.268Z,98757.00
2023-05-10T13:26:11.761Z,98756.77
2023-05-10T13:27:33.821Z,98756.02
2023-05-10T13:28:57.793Z,98758.52
2023-05-10T13:30:26.977Z,98756.77
2023-05-10T13:32:07.943Z,98752.21
2023-05-10T13:33:30.152Z,98744.65
2023-05-10T13:34:52.209Z,98754.14
2023-05-10T13:36:14.133Z,98753.23
2023-05-10T13:37:38.129Z,98744.27
2023-05-10T13:39:02.290Z,98744.27
2023-05-10T13:40:31.426Z,98740.41
2023-05-10T13:41:53.970Z,98742.09
2023-05-10T13:43:17.373Z,98740.90
2023-05-10T13:44:51.471Z,98738.05
2023-05-10T13:46:25.098Z,98740.29
2023-05-10T13:47:47.189Z,98744.16
2023-05-10T13:49:16.145Z,98739.91
2023-05-10T13:50:39.510Z,98739.98
2023-05-10T13:52:07.596Z,98739.02
2023-05-10T13:53:29.452Z,98737.54
2023-05-10T13:54:55.849Z,98738.97
2023-05-10T13:56:36.113Z,98731.23
2023-05-10T13:58:00.365Z,98734.84
2023-05-10T13:59:24.447Z,98734.07
2023-05-10T14:00:46.443Z,98731.10
2023-05-10T14:02:08.536Z,98733.27
2023-05-10T14:03:30.773Z,98727.10
2023-05-10T14:04:52.494Z,98728.64
2023-05-10T14:06:22.011Z,98731.01
2023-05-10T14:08:01.022Z,98725.98
2023-05-10T14:09:22.866Z,98725.73
2023-05-10T14:10:49.436Z,98724.73
2023-05-10T14:12:15.525Z,98723.56
2023-05-10T14:13:40.297Z,98721.23
2023-05-10T14:15:07.707Z,98719.90
2023-05-10T14:16:29.892Z,98722.38
2023-05-10T14:17:54.358Z,98719.59
2023-05-10T14:19:28.860Z,98718.73
2023-05-10T14:21:02.341Z,98712.53
2023-05-10T14:22:26.497Z,98718.23
2023-05-10T14:23:50.376Z,98720.02
2023-05-10T14:25:23.941Z,98720.89
2023-05-10T14:26:46.154Z,98716.21
2023-05-10T14:28:20.307Z,98720.86
2023-05-10T14:29:54.577Z,98718.23
2023-05-10T14:31:18.017Z,98719.22
2023-05-10T14:32:59.205Z,98717.70
2023-05-10T14:34:28.428Z,98718.61
2023-05-10T14:35:50.189Z,98716.01
2023-05-10T14:37:14.532Z,98723.16
2023-05-10T14:38:39.337Z,98720.86
2023-05-10T14:40:01.365Z,98723.05
2023-05-10T14:41:22.972Z,98720.34
2023-05-10T14:42:47.824Z,98719.93
2023-05-10T14:44:16.828Z,98713.73
2023-05-10T14:45:41.310Z,98713.83
2023-05-10T14:47:03.370Z,98718.03
2023-05-10T14:48:25.264Z,98716.09
2023-05-10T14:49:47.268Z,98718.48
2023-05-10T14:51:11.389Z,98717.73
2023-05-10T14:52:54.562Z,98715.17
2023-05-10T14:54:42.769Z,98713.48
2023-05-10T14:56:04.695Z,98716.23
2023-05-10T14:57:26.143Z,98721.70
2023-05-10T14:58:47.945Z,98719.06
2023-05-10T15:00:12.476Z,98716.97
2023-05-10T15:01:36.415Z,98714.07
2023-05-10T15:02:58.955Z,98713.52
2023-05-10T15:04:23.711Z,98712.83
2023-05-10T15:05:48.980Z,98718.51
2023-05-10T15:07:18.443Z,98716.84
2023-05-10T15:08:52.671Z,98715.36
2023-05-10T15:10:28.470Z,98715.69
2023-05-10T15:11:50.264Z,98712.74
2023-05-10T15:13:12.268Z,98706.59
2023-05-10T15:14:34.182Z,98709.08
2023-05-10T15:16:03.691Z,98709.86
2023-05-10T15:17:25.351Z,98711.21
2023-05-10T15:18:50.123Z,98712.01
2023-05-10T15:20:11.866Z,98714.27
2023-05-10T15:21:50.252Z,98715.16
2023-05-10T15:23:26.041Z,98713.95
2023-05-10T15:24:50.299Z,98716.33
2023-05-10T15:26:12.255Z,98711.08
2023-05-10T15:27:34.338Z,98709.17
2023-05-10T15:29:00.613Z,98712.05
2023-05-10T15:30:34.215Z,98708.35
2023-05-10T15:31:58.649Z,98707.58
2023-05-10T15:33:22.147Z,98708.52
2023-05-10T15:34:44.356Z,98707.65
2023-05-10T15:36:17.829Z,98708.40
2023-05-10T15:37:39.809Z,98703.94
2023-05-10T15:39:01.292Z,98708.98
2023-05-10T15:40:30.650Z,98706.20
2023-05-10T15:41:52.481Z,98703.64
2023-05-10T15:43:16.298Z,98703.50
2023-05-10T15:44:39.488Z,98703.02
2023-05-10T15:46:01.736Z,98704.50
2023-05-10T15:47:25.433Z,98710.23
2023-05-10T15:48:47.500Z,98707.02
2023-05-10T15:50:09.222Z,98696.11
2023-05-10T15:51:35.911Z,98702.36
2023-05-10T15:53:00.759Z,98706.88
2023-05-10T15:54:23.353Z,98708.87
2023-05-10T15:55:45.414Z,98701.73
2023-05-10T15:57:07.928Z,98711.64
2023-05-10T15:58:29.764Z,98710.77
2023-05-10T15:59:51.540Z,98708.27
2023-05-10T16:01:15.391Z,98704.58
2023-05-10T16:02:49.004Z,98695.45
2023-05-10T16:04:11.147Z,98697.97
2023-05-10T16:05:40.521Z,98705.06
2023-05-10T16:07:02.500Z,98704.45
2023-05-10T16:08:35.603Z,98707.45
2023-05-10T16:09:57.682Z,98711.63
2023-05-10T16:11:19.062Z,98712.22
2023-05-10T16:12:40.883Z,98708.63
2023-05-10T16:14:02.761Z,98709.17
2023-05-10T16:15:24.354Z,98708.19
2023-05-10T16:16:48.940Z,98709.48
2023-05-10T16:18:18.017Z,98709.62
2023-05-10T16:19:47.692Z,98711.81
2023-05-10T16:21:11.800Z,98711.62
2023-05-10T16:22:33.629Z,98708.63
2023-05-10T16:23:59.773Z,98713.73
2023-05-10T16:25:21.260Z,98711.13
2023-05-10T16:26:45.311Z,98712.64
2023-05-10T16:28:07.545Z,98713.41
2023-05-10T16:29:31.501Z,98709.39
2023-05-10T16:30:53.873Z,98709.02
2023-05-10T16:32:20.916Z,98710.47
2023-05-10T16:33:46.167Z,98711.53
2023-05-10T16:35:08.011Z,98711.36
2023-05-10T16:36:33.342Z,98711.85
2023-05-10T16:37:55.755Z,98716.73
2023-05-10T16:39:17.469Z,98713.73
2023-05-10T16:40:39.821Z,98717.09